Terminal Aerodrome Forecast
Issued by NWS Topeka, KS

Home | Current Version | Previous Version | Graphics & Text | Print | Product List | Glossary On
Versions: 1 2 3 4 5 6 7 8 9 10 11 12 13 14 15 16 17 18 19 20 21 22 23 24 25 26 27
000
FTUS43 KTOP 280835 AAC
TAFTOP
TAF AMD
KTOP 280835Z 2809/2906 25010KT P6SM BKN035
      TEMPO 2809/2812 BKN021
     FM281500 30009KT P6SM SCT060 BKN250
     FM290000 35006KT P6SM OVC200=

USA.gov is the U.S. government's official web portal to all federal, state and local government web resources and services.